In Rescue
 
Open Full Screen Window  High Contrast Mode
Wind Gusting 00 knots
03
September 19, 2019 4:36 PM CDT
Weather Information
Wind Direction
  190 °
Wind Speed
  03 kt (3 mph)
Wind Gust
  00 kt (0 mph)
Altimeter
30.00 in
Visibility
10 SM
Temperature
27° C
81° F
Dewpoint
14° C
57° F
Humidity
45%
1hr Rain Fall
00.00 in.
24hr Rain Fall
00.00 in.
Sky Condition
Clear
VFR

METAR KFSE 192136Z AUTO 19003KT 10SM CLR 27/14 A3000 RMK AO2

FAA Disclaimer: The data displayed is for advisory purposes only and is not to be used for flight planning or operations.